Terminal Aerodrome Forecast
Issued by NWS

Home | Current Version | Previous Version | Graphics & Text | Print | Product List | Glossary Off
Versions: 1 2 3 4 5 6 7 8 9 10 11 12 13 14 15 16 17 18 19 20 21 22 23 24 25 26 27 28 29 30 31

000
FTUS43 KDDC 311141 RRA
TAFHYS
TAF
KHYS 311141Z 3112/0112 01004KT 3SM BR VCTS OVC010CB
     FM311400 03005KT P6SM OVC010
     FM311600 04006KT P6SM VCSH OVC025
     FM311900 05007KT P6SM VCTS OVC035CB
     FM312100 06008KT P6SM BKN050 PROB30 3121/3123 4SM TSRA OVC025CB
     FM010800 02004KT P6SM BKN025=

USA.gov is the U.S. government's official web portal to all federal, state and local government web resources and services.